Список аэропортов
Фактическая погода:

26 июня, 22:50
Температура: +26°C (+26.0*)
Ветер: западный 2 м/с
Давление: *764 мм
Без существ. явл.
Время (МСК)Темп. СВетерВлажностьДавлениеОблачностьОсадки
21:00+27З, 4 м/с61%1019 гПаясно
22:00+26СЗ, 3 м/с70%1019 гПаясно
23:00+25СЗ, 1 м/с79%1020 гПаясно
27 июня
00:00+24СВ, 1 м/с83%1020 гПаясно
01:00+23В, 1 м/с85%1020 гПаясно
02:00+23СВ, 1 м/с88%1020 гПаясно
03:00+22СВ, 3 м/с85%1019 гПаясно
04:00+22СВ, 3 м/с79%1019 гПаясно
05:00+22СВ, 4 м/с74%1020 гПаясно
06:00+22СВ, 4 м/с72%1020 гПаясно
07:00+22СВ, 4 м/с73%1020 гПаясно
08:00+22СВ, 3 м/с71%1020 гПаясно
09:00+25СВ, 4 м/с62%1020 гПаясно
10:00+27СВ, 3 м/с53%1020 гПаясно
11:00+30С, 2 м/с48%1020 гПаясно
12:00+31З, 2 м/с45%1019 гПаясно
13:00+31З, 5 м/с45%1019 гПаясно
14:00+31З, 5 м/с46%1019 гПамалооблачно
15:00+31З, 6 м/с48%1018 гПамалооблачно
16:00+30З, 8 м/с48%1018 гПас прояснениями
17:00+30З, 8 м/с53%1017 гПас прояснениями
18:00+29З, 8 м/с59%1016 гПаясно
19:00+28З, 7 м/с62%1016 гПаясно
20:00+28З, 7 м/с65%1015 гПаясно
21:00+27З, 6 м/с62%1015 гПаясно
22:00+27З, 5 м/с58%1015 гПаясно
23:00+26СЗ, 3 м/с62%1015 гПаясно
28 июня
00:00+24С, 1 м/с74%1015 гПаясно
01:00+24СВ, 2 м/с80%1016 гПаясно
02:00+23СВ, 2 м/с84%1015 гПаясно
03:00+21В, 1 м/с92%1015 гПаясно
04:00+21СВ, 1 м/с93%1015 гПаясно
05:00+21С, 2 м/с93%1015 гПаясно
06:00+21С, 2 м/с90%1015 гПаясно
07:00+20СВ, 2 м/с89%1015 гПаясно
08:00+22СВ, 3 м/с76%1015 гПаясно
09:00+24СВ, 3 м/с64%1014 гПаясно
10:00+27СВ, 3 м/с54%1014 гПаясно
11:00+29В, 1 м/с49%1014 гПаясно
12:00+30ЮЗ, 2 м/с48%1014 гПаясно
13:00+30ЮЗ, 3 м/с51%1014 гПаясно
14:00+31ЮЗ, 3 м/с52%1014 гПаясно
15:00+30ЮЗ, 4 м/с52%1013 гПаясно
16:00+30ЮЗ, 4 м/с52%1013 гПаясно
17:00+29З, 5 м/с61%1013 гПаясно
18:00+28З, 4 м/с62%1012 гПаясно
19:00+28З, 4 м/с58%1012 гПаясно
20:00+27З, 4 м/с67%1012 гПаясно
21:00+26З, 2 м/с78%1012 гПаясно